LKE9831 ZPPP-ZUXC
Flight info
| Callsign | LKE9831 |
|---|---|
| Flight time | N/A |
| Altitude | 30100 |
| Route | P73 BUBSU/K0854S0950 W162 CEH DQ770 |
| Aircraft | B738/M-SDE2E3FGHIRWXY/LB1 |
Departure
| Time | 2026-05-01 12:14 |
|---|---|
| Airport | Kunming Changshui International Airport (ZPPP) |
Arrival
| Time | N/A |
|---|---|
| Airport | Xichang Qingshan Airport (ZUXC) |
| Time | Latitude | Longitude | Altitude | Speed | Heading |
|---|---|---|---|---|---|
| 2026-05-01 11:57 | 25.10385 | 102.92920 | 6901 ft | 0 kts | 89° |
| 2026-05-01 12:03 | 25.10385 | 102.92909 | 6900 ft | 2 kts | 89° |
| 2026-05-01 12:04 | 25.10385 | 102.92891 | 6901 ft | 2 kts | 89° |
| 2026-05-01 12:04 | 25.10384 | 102.92873 | 6901 ft | 2 kts | 88° |
| 2026-05-01 12:04 | 25.10384 | 102.92855 | 6902 ft | 2 kts | 88° |
| 2026-05-01 12:04 | 25.10382 | 102.92837 | 6901 ft | 2 kts | 57° |
| 2026-05-01 12:05 | 25.10371 | 102.92823 | 6902 ft | 2 kts | 20° |
| 2026-05-01 12:05 | 25.10357 | 102.92819 | 6901 ft | 0 kts | 16° |
| 2026-05-01 12:07 | 25.10380 | 102.92824 | 6902 ft | 9 kts | 8° |
| 2026-05-01 12:07 | 25.10484 | 102.92796 | 6902 ft | 21 kts | 336° |
| 2026-05-01 12:07 | 25.10612 | 102.92728 | 6903 ft | 21 kts | 334° |
| 2026-05-01 12:08 | 25.10723 | 102.92655 | 6917 ft | 13 kts | 313° |
| 2026-05-01 12:08 | 25.10793 | 102.92570 | 6906 ft | 17 kts | 311° |
| 2026-05-01 12:08 | 25.10892 | 102.92520 | 6912 ft | 19 kts | 34° |
| 2026-05-01 12:08 | 25.11009 | 102.92624 | 6904 ft | 24 kts | 38° |
| 2026-05-01 12:09 | 25.11152 | 102.92747 | 6903 ft | 28 kts | 38° |
| 2026-05-01 12:09 | 25.11282 | 102.92860 | 6903 ft | 26 kts | 38° |
| 2026-05-01 12:09 | 25.11346 | 102.92915 | 6903 ft | 25 kts | 38° |
| 2026-05-01 12:09 | 25.11480 | 102.93032 | 6902 ft | 24 kts | 38° |
| 2026-05-01 12:10 | 25.11606 | 102.93143 | 6902 ft | 23 kts | 37° |
| 2026-05-01 12:10 | 25.11847 | 102.93352 | 6899 ft | 21 kts | 38° |
| 2026-05-01 12:10 | 25.11962 | 102.93453 | 6899 ft | 21 kts | 38° |
| 2026-05-01 12:11 | 25.12184 | 102.93643 | 6899 ft | 20 kts | 38° |
| 2026-05-01 12:11 | 25.12299 | 102.93742 | 6898 ft | 23 kts | 38° |
| 2026-05-01 12:11 | 25.12440 | 102.93865 | 6897 ft | 28 kts | 39° |
| 2026-05-01 12:12 | 25.12572 | 102.93982 | 6896 ft | 21 kts | 38° |
| 2026-05-01 12:12 | 25.12702 | 102.94094 | 6895 ft | 26 kts | 38° |
| 2026-05-01 12:12 | 25.12852 | 102.94224 | 6895 ft | 27 kts | 38° |
| 2026-05-01 12:12 | 25.12978 | 102.94239 | 6894 ft | 19 kts | 308° |
| 2026-05-01 12:13 | 25.13025 | 102.94134 | 6892 ft | 6 kts | 239° |
| 2026-05-01 12:13 | 25.12990 | 102.94102 | 6893 ft | 6 kts | 218° |
| 2026-05-01 12:13 | 25.12924 | 102.94045 | 6893 ft | 22 kts | 218° |
| 2026-05-01 12:13 | 25.12641 | 102.93797 | 6897 ft | 85 kts | 218° |
| 2026-05-01 12:14 | 25.12014 | 102.93252 | 6898 ft | 143 kts | 218° |
| 2026-05-01 12:14 | 25.11096 | 102.92456 | 6973 ft | 187 kts | 218° |
| 2026-05-01 12:14 | 25.10042 | 102.91526 | 7524 ft | 202 kts | 220° |
| 2026-05-01 12:14 | 25.09133 | 102.90365 | 8392 ft | 190 kts | 236° |
| 2026-05-01 12:15 | 25.08373 | 102.89193 | 9157 ft | 190 kts | 236° |
| 2026-05-01 12:15 | 25.07551 | 102.87939 | 9343 ft | 212 kts | 236° |
| 2026-05-01 12:15 | 25.06639 | 102.86556 | 9513 ft | 235 kts | 236° |
| 2026-05-01 12:15 | 25.05643 | 102.85056 | 9836 ft | 247 kts | 236° |
| 2026-05-01 12:16 | 25.04653 | 102.83536 | 10510 ft | 245 kts | 236° |
| 2026-05-01 12:16 | 25.03621 | 102.82012 | 10984 ft | 250 kts | 236° |
| 2026-05-01 12:16 | 25.02596 | 102.80502 | 11575 ft | 249 kts | 236° |
| 2026-05-01 12:16 | 25.01559 | 102.78968 | 12154 ft | 251 kts | 236° |
| 2026-05-01 12:17 | 25.00853 | 102.77922 | 12506 ft | 253 kts | 236° |
| 2026-05-01 12:17 | 24.99453 | 102.75848 | 13245 ft | 255 kts | 236° |
| 2026-05-01 12:17 | 24.98404 | 102.74260 | 13772 ft | 257 kts | 241° |
| 2026-05-01 12:17 | 24.97837 | 102.72408 | 14225 ft | 257 kts | 264° |
| 2026-05-01 12:18 | 24.97830 | 102.71078 | 14580 ft | 258 kts | 274° |
| 2026-05-01 12:18 | 24.98298 | 102.69158 | 15062 ft | 264 kts | 292° |
| 2026-05-01 12:18 | 24.99214 | 102.67386 | 15543 ft | 268 kts | 297° |
| 2026-05-01 12:18 | 25.00219 | 102.65635 | 15981 ft | 272 kts | 297° |
| 2026-05-01 12:19 | 25.01563 | 102.63290 | 16606 ft | 274 kts | 297° |
| 2026-05-01 12:19 | 25.02587 | 102.61513 | 17071 ft | 276 kts | 298° |
| 2026-05-01 12:19 | 25.03297 | 102.60309 | 17345 ft | 278 kts | 298° |
| 2026-05-01 12:19 | 25.04356 | 102.58513 | 17752 ft | 281 kts | 298° |
| 2026-05-01 12:20 | 25.05421 | 102.56696 | 18239 ft | 282 kts | 297° |
| 2026-05-01 12:20 | 25.06488 | 102.54871 | 18641 ft | 285 kts | 297° |
| 2026-05-01 12:20 | 25.07540 | 102.53008 | 18995 ft | 285 kts | 290° |
| 2026-05-01 12:20 | 25.08065 | 102.50945 | 19423 ft | 279 kts | 274° |
| 2026-05-01 12:21 | 25.08101 | 102.48804 | 19775 ft | 280 kts | 266° |
| 2026-05-01 12:21 | 25.07993 | 102.46647 | 20140 ft | 282 kts | 264° |
| 2026-05-01 12:21 | 25.07859 | 102.44483 | 20500 ft | 285 kts | 264° |
| 2026-05-01 12:21 | 25.07723 | 102.42294 | 20852 ft | 287 kts | 264° |
| 2026-05-01 12:22 | 25.07591 | 102.40091 | 21227 ft | 289 kts | 264° |
| 2026-05-01 12:22 | 25.07464 | 102.37881 | 21632 ft | 289 kts | 264° |
| 2026-05-01 12:22 | 25.07338 | 102.35652 | 21909 ft | 293 kts | 264° |
| 2026-05-01 12:22 | 25.07216 | 102.33439 | 22303 ft | 293 kts | 264° |
| 2026-05-01 12:23 | 25.07094 | 102.31189 | 22629 ft | 295 kts | 264° |
| 2026-05-01 12:23 | 25.06972 | 102.28927 | 22946 ft | 298 kts | 264° |
| 2026-05-01 12:23 | 25.06850 | 102.26636 | 23236 ft | 301 kts | 264° |
| 2026-05-01 12:23 | 25.06726 | 102.24323 | 23496 ft | 303 kts | 264° |
| 2026-05-01 12:24 | 25.06599 | 102.21964 | 23594 ft | 316 kts | 264° |
| 2026-05-01 12:24 | 25.06466 | 102.19491 | 23706 ft | 330 kts | 264° |
| 2026-05-01 12:24 | 25.06326 | 102.16917 | 23764 ft | 343 kts | 264° |
| 2026-05-01 12:24 | 25.06182 | 102.14238 | 23850 ft | 356 kts | 264° |
| 2026-05-01 12:25 | 25.06032 | 102.11464 | 23925 ft | 368 kts | 264° |
| 2026-05-01 12:25 | 25.05719 | 102.05656 | 24063 ft | 390 kts | 264° |
| 2026-05-01 12:25 | 25.05555 | 102.02629 | 24108 ft | 400 kts | 264° |
| 2026-05-01 12:26 | 25.05387 | 101.99536 | 24158 ft | 409 kts | 264° |
| 2026-05-01 12:26 | 25.05039 | 101.93157 | 24250 ft | 424 kts | 264° |
| 2026-05-01 12:26 | 25.04859 | 101.89889 | 24299 ft | 431 kts | 264° |
| 2026-05-01 12:27 | 25.04676 | 101.86579 | 24408 ft | 434 kts | 264° |
| 2026-05-01 12:27 | 25.04301 | 101.79944 | 24927 ft | 433 kts | 264° |
| 2026-05-01 12:28 | 25.03933 | 101.73274 | 25254 ft | 437 kts | 264° |
| 2026-05-01 12:28 | 25.03745 | 101.69926 | 25472 ft | 438 kts | 264° |
| 2026-05-01 12:28 | 25.03364 | 101.63204 | 25804 ft | 441 kts | 264° |
| 2026-05-01 12:29 | 25.03171 | 101.59817 | 25978 ft | 443 kts | 264° |
| 2026-05-01 12:29 | 25.02977 | 101.56431 | 26176 ft | 443 kts | 264° |
| 2026-05-01 12:29 | 25.02582 | 101.49599 | 26293 ft | 450 kts | 264° |
| 2026-05-01 12:30 | 25.02181 | 101.42664 | 26402 ft | 456 kts | 264° |
| 2026-05-01 12:30 | 25.01979 | 101.39179 | 26563 ft | 455 kts | 264° |
| 2026-05-01 12:30 | 25.01776 | 101.35698 | 26779 ft | 454 kts | 264° |
| 2026-05-01 12:31 | 25.01575 | 101.32247 | 26976 ft | 452 kts | 264° |
| 2026-05-01 12:31 | 25.01371 | 101.28770 | 27073 ft | 454 kts | 265° |
| 2026-05-01 12:31 | 25.01166 | 101.25300 | 27205 ft | 455 kts | 264° |
| 2026-05-01 12:31 | 25.00960 | 101.21822 | 27430 ft | 453 kts | 264° |
| 2026-05-01 12:32 | 25.00754 | 101.18362 | 27642 ft | 452 kts | 264° |
| 2026-05-01 12:32 | 25.00337 | 101.11410 | 27810 ft | 456 kts | 264° |
| 2026-05-01 12:32 | 25.00135 | 101.07920 | 27886 ft | 457 kts | 265° |
| 2026-05-01 12:33 | 24.99926 | 101.04426 | 27996 ft | 456 kts | 264° |
| 2026-05-01 12:33 | 24.99708 | 101.00930 | 28054 ft | 457 kts | 264° |
| 2026-05-01 12:33 | 24.99492 | 100.97437 | 28171 ft | 457 kts | 264° |
| 2026-05-01 12:33 | 24.99278 | 100.93947 | 28340 ft | 456 kts | 264° |
| 2026-05-01 12:34 | 24.99064 | 100.90459 | 28485 ft | 455 kts | 264° |
| 2026-05-01 12:34 | 24.98852 | 100.87022 | 28582 ft | 456 kts | 264° |
| 2026-05-01 12:34 | 24.98637 | 100.83538 | 28707 ft | 456 kts | 265° |
| 2026-05-01 12:34 | 24.98420 | 100.80050 | 28766 ft | 456 kts | 264° |
| 2026-05-01 12:35 | 24.98204 | 100.76569 | 28919 ft | 455 kts | 264° |
| 2026-05-01 12:35 | 24.97988 | 100.73095 | 29058 ft | 455 kts | 264° |
| 2026-05-01 12:35 | 24.97550 | 100.66139 | 29306 ft | 454 kts | 264° |
| 2026-05-01 12:36 | 24.97331 | 100.62675 | 29438 ft | 453 kts | 265° |
| 2026-05-01 12:36 | 24.97148 | 100.59207 | 29588 ft | 454 kts | 267° |
| 2026-05-01 12:36 | 24.97262 | 100.55729 | 29774 ft | 453 kts | 272° |
| 2026-05-01 12:36 | 24.97509 | 100.52282 | 30039 ft | 450 kts | 272° |
| 2026-05-01 12:37 | 24.98005 | 100.45398 | 30036 ft | 450 kts | 272° |
| 2026-05-01 12:37 | 24.98426 | 100.38509 | 30024 ft | 451 kts | 272° |
| 2026-05-01 12:38 | 24.98955 | 100.35096 | 30023 ft | 456 kts | 286° |
| 2026-05-01 12:38 | 25.00353 | 100.31940 | 30037 ft | 463 kts | 300° |
| 2026-05-01 12:38 | 25.02439 | 100.29197 | 30038 ft | 472 kts | 313° |
| 2026-05-01 12:38 | 25.05113 | 100.27040 | 29997 ft | 484 kts | 327° |
| 2026-05-01 12:39 | 25.08261 | 100.25659 | 30009 ft | 494 kts | 340° |
| 2026-05-01 12:39 | 25.11698 | 100.25163 | 30016 ft | 505 kts | 356° |
| 2026-05-01 12:39 | 25.18746 | 100.26020 | 30018 ft | 511 kts | 4° |
| 2026-05-01 12:40 | 25.25786 | 100.27127 | 30015 ft | 511 kts | 3° |
| 2026-05-01 12:40 | 25.32855 | 100.28135 | 30029 ft | 513 kts | 2° |
| 2026-05-01 12:41 | 25.39953 | 100.29078 | 30027 ft | 515 kts | 1° |
| 2026-05-01 12:41 | 25.47063 | 100.30015 | 30023 ft | 514 kts | 1° |
| 2026-05-01 12:42 | 25.54173 | 100.30968 | 30005 ft | 515 kts | 2° |
| 2026-05-01 12:42 | 25.61234 | 100.31912 | 30029 ft | 515 kts | 1° |
| 2026-05-01 12:43 | 25.68284 | 100.33655 | 29921 ft | 527 kts | 14° |
| 2026-05-01 12:43 | 25.71755 | 100.34999 | 29596 ft | 527 kts | 14° |
| 2026-05-01 12:43 | 25.75208 | 100.36332 | 29387 ft | 526 kts | 15° |
| 2026-05-01 12:44 | 25.78647 | 100.37736 | 29120 ft | 528 kts | 16° |
| 2026-05-01 12:44 | 25.82091 | 100.39151 | 28984 ft | 527 kts | 15° |
| 2026-05-01 12:45 | 25.95903 | 100.44619 | 28977 ft | 528 kts | 14° |